createdAt,value
2023-05-19T00:00:24.120Z,0.9
2023-05-19T00:01:24.545Z,1
2023-05-19T00:02:24.955Z,0.9
2023-05-19T00:03:25.386Z,1.1
2023-05-19T00:04:27.544Z,1.1
2023-05-19T00:05:25.823Z,1.4
2023-05-19T00:06:27.249Z,1.2
2023-05-19T00:07:31.341Z,1.1
2023-05-19T00:08:31.852Z,0.9
2023-05-19T00:09:29.936Z,1.2
2023-05-19T00:10:30.582Z,0.9
2023-05-19T00:11:30.644Z,1
2023-05-19T00:12:30.970Z,1
2023-05-19T00:13:31.171Z,1.1
2023-05-19T00:14:31.796Z,0.9
2023-05-19T00:15:31.909Z,1.1
2023-05-19T00:16:32.139Z,1.6
2023-05-19T00:17:32.063Z,1.1
2023-05-19T00:18:32.442Z,1.1
2023-05-19T00:19:32.968Z,1.2
2023-05-19T00:20:33.482Z,0.8
2023-05-19T00:21:36.641Z,1.2
2023-05-19T00:22:34.104Z,1.2
2023-05-19T00:23:34.203Z,1.2
2023-05-19T00:24:35.234Z,0.9
2023-05-19T00:25:36.796Z,1
2023-05-19T00:26:35.455Z,1.2
2023-05-19T00:27:35.786Z,1.6
2023-05-19T00:28:36.285Z,1.3
2023-05-19T00:29:36.501Z,0.9
2023-05-19T00:30:37.563Z,1
2023-05-19T00:31:37.249Z,1.1
2023-05-19T00:32:37.554Z,1
2023-05-19T00:33:37.873Z,1
2023-05-19T00:34:38.381Z,1.1
2023-05-19T00:35:41.438Z,0.9
2023-05-19T00:36:39.339Z,1.1
2023-05-19T00:37:39.335Z,1
2023-05-19T00:38:40.138Z,1.1
2023-05-19T00:39:40.152Z,1
2023-05-19T00:40:40.488Z,1
2023-05-19T00:41:40.904Z,1.3
2023-05-19T00:42:41.713Z,0.9
2023-05-19T00:43:41.728Z,1
2023-05-19T00:44:45.807Z,1.1
2023-05-19T00:45:43.373Z,1.3
2023-05-19T00:46:43.653Z,0.9
2023-05-19T00:47:43.819Z,1.2
2023-05-19T00:48:44.120Z,1.2
2023-05-19T00:49:44.528Z,0.9
2023-05-19T00:50:49.053Z,0.9
2023-05-19T00:51:46.521Z,1.1
2023-05-19T00:52:47.110Z,1.2
2023-05-19T00:53:48.386Z,1.1
2023-05-19T00:54:48.668Z,1.2
2023-05-19T00:55:48.771Z,1.2
2023-05-19T00:56:50.708Z,1.3
2023-05-19T00:57:49.801Z,1
2023-05-19T00:58:51.766Z,1.1
2023-05-19T00:59:49.508Z,0.9
2023-05-19T01:00:50.520Z,1.3
2023-05-19T01:01:50.128Z,1.1
2023-05-19T01:02:50.802Z,1.1
2023-05-19T01:03:50.753Z,1.1
2023-05-19T01:04:52.215Z,1.1
2023-05-19T01:05:51.484Z,1
2023-05-19T01:06:52.220Z,1.1
2023-05-19T01:07:52.734Z,1.1
2023-05-19T01:08:52.318Z,1.1
2023-05-19T01:09:52.938Z,1
2023-05-19T01:10:53.260Z,1.1
2023-05-19T01:11:53.805Z,1.1
2023-05-19T01:12:53.707Z,1.1
2023-05-19T01:13:54.214Z,1.1
2023-05-19T01:14:56.054Z,1.3
2023-05-19T01:31:26.811Z,1.1
2023-05-19T01:32:26.483Z,1
2023-05-19T01:33:28.545Z,1
2023-05-19T01:34:27.411Z,1.2
2023-05-19T01:36:29.170Z,1.1
2023-05-19T01:37:29.399Z,0.9
2023-05-19T01:38:30.109Z,1.2
2023-05-19T01:39:29.816Z,1.1
2023-05-19T01:40:31.203Z,1.1
2023-05-19T01:41:31.042Z,1
2023-05-19T01:42:32.070Z,1.2
2023-05-19T01:43:31.262Z,1.3
2023-05-19T01:44:34.128Z,1.1
2023-05-19T01:45:33.695Z,1.2
2023-05-19T01:46:32.018Z,1.2
2023-05-19T01:47:35.119Z,1.2
2023-05-19T01:48:33.568Z,1.1
2023-05-19T01:49:32.938Z,1.2
2023-05-19T01:50:34.616Z,1.1
2023-05-19T01:51:33.980Z,1.2
2023-05-19T01:52:34.232Z,1.3
2023-05-19T01:53:34.732Z,1
2023-05-19T01:54:34.745Z,1.2
2023-05-19T02:02:02.416Z,1.4
2023-05-19T02:12:29.171Z,1.5
2023-05-19T02:13:30.028Z,1
2023-05-19T02:15:34.361Z,1.1
2023-05-19T02:16:29.190Z,1.3
2023-05-19T02:17:31.943Z,1
2023-05-19T02:18:30.174Z,0.9
2023-05-19T02:19:38.987Z,1.4
2023-05-19T02:20:32.191Z,1.3
2023-05-19T02:21:31.625Z,1.6
2023-05-19T02:22:32.256Z,1
2023-05-19T02:23:32.571Z,1.1
2023-05-19T02:24:32.561Z,1.3
2023-05-19T02:25:32.885Z,1.1
2023-05-19T02:26:33.322Z,1.3
2023-05-19T02:27:35.108Z,1.1
2023-05-19T02:28:34.119Z,1.2
2023-05-19T02:29:34.343Z,1.2
2023-05-19T02:30:34.886Z,1.5
2023-05-19T02:31:35.086Z,2.9
2023-05-19T02:32:35.719Z,2.2
2023-05-19T02:33:35.912Z,1.4
2023-05-19T02:34:36.014Z,1.4
2023-05-19T02:35:36.424Z,1.2
2023-05-19T02:36:36.946Z,1.3
2023-05-19T02:37:37.248Z,1.2
2023-05-19T02:38:37.463Z,1.2
2023-05-19T02:39:37.778Z,1.1
2023-05-19T02:40:38.005Z,1
2023-05-19T02:41:39.028Z,1.1
2023-05-19T02:42:40.471Z,1.2
2023-05-19T02:43:39.144Z,1
2023-05-19T02:44:39.885Z,1
2023-05-19T02:45:39.771Z,1.2
2023-05-19T02:46:40.358Z,1
2023-05-19T02:47:40.590Z,1.3
2023-05-19T02:48:40.919Z,1.1
2023-05-19T02:49:41.334Z,1.1
2023-05-19T02:50:41.552Z,1
2023-05-19T02:51:41.755Z,1.1
2023-05-19T02:52:42.343Z,1.1
2023-05-19T02:53:42.597Z,1.2
2023-05-19T02:54:42.998Z,1.3
2023-05-19T02:55:43.335Z,1.2
2023-05-19T02:56:43.745Z,1.1
2023-05-19T02:57:44.244Z,1
2023-05-19T02:58:44.257Z,1.2
2023-05-19T02:59:44.569Z,1.1
2023-05-19T03:00:44.992Z,1.3
2023-05-19T03:01:45.337Z,1.1
2023-05-19T03:02:45.987Z,1.2
2023-05-19T03:03:46.119Z,1
2023-05-19T03:04:46.244Z,1.1
2023-05-19T03:05:46.765Z,1.2
2023-05-19T03:06:47.401Z,1.2
2023-05-19T03:07:47.828Z,1.2
2023-05-19T03:08:49.063Z,1.1
2023-05-19T03:09:48.027Z,1.2
2023-05-19T03:10:48.955Z,1.1
2023-05-19T03:11:48.850Z,1.2
2023-05-19T03:12:49.284Z,1.4
2023-05-19T03:13:49.374Z,1.1
2023-05-19T03:14:50.323Z,1.5
2023-05-19T03:15:50.311Z,1.1
2023-05-19T03:16:50.783Z,1.3
2023-05-19T03:17:51.443Z,1.1
2023-05-19T03:18:51.501Z,1.2
2023-05-19T03:19:51.570Z,1
2023-05-19T03:20:52.293Z,1.2
2023-05-19T03:21:52.306Z,1.2
2023-05-19T03:22:52.718Z,1.1
2023-05-19T03:23:53.344Z,1
2023-05-19T03:24:53.664Z,1
2023-05-19T03:25:53.551Z,1.1
2023-05-19T03:26:54.068Z,1.2
2023-05-19T03:27:54.624Z,1.2
2023-05-19T03:28:54.699Z,1
2023-05-19T03:29:55.016Z,1.3
2023-05-19T03:30:55.443Z,1.1
2023-05-19T03:31:55.861Z,0.8
2023-05-19T03:32:56.340Z,1.1
2023-05-19T03:33:59.250Z,1
2023-05-19T03:34:56.904Z,0.9
2023-05-19T03:35:57.832Z,1.2
2023-05-19T03:36:57.662Z,1
2023-05-19T03:38:59.800Z,1
2023-05-19T03:40:00.521Z,1.1
2023-05-19T03:41:00.762Z,1.2
2023-05-19T03:42:00.932Z,1.2
2023-05-19T03:43:01.344Z,1.2
2023-05-19T03:44:02.904Z,0.9
2023-05-19T03:45:05.257Z,1.1
2023-05-19T03:46:02.773Z,1.4
2023-05-19T03:47:03.327Z,1.1
2023-05-19T03:48:03.711Z,1
2023-05-19T03:49:05.385Z,0.9
2023-05-19T03:50:04.675Z,0.9
2023-05-19T03:51:04.851Z,0.9
2023-05-19T03:52:05.399Z,1
2023-05-19T03:53:05.415Z,1.1
2023-05-19T03:54:06.038Z,1.2
2023-05-19T03:55:06.656Z,1
2023-05-19T03:56:07.078Z,0.9
2023-05-19T03:57:06.579Z,1.3
2023-05-19T03:58:07.195Z,0.8
2023-05-19T03:59:07.810Z,1
2023-05-19T04:00:09.445Z,1.1
2023-05-19T04:01:08.133Z,0.9
2023-05-19T04:02:08.658Z,1.1
2023-05-19T04:03:09.280Z,1
2023-05-19T04:04:09.348Z,0.8
2023-05-19T04:05:11.135Z,1.3
2023-05-19T04:06:10.008Z,1.8
2023-05-19T04:07:10.329Z,2.1
2023-05-19T04:08:10.831Z,2.3
2023-05-19T04:09:14.643Z,2.5
2023-05-19T04:10:15.142Z,2.9
2023-05-19T04:11:12.910Z,3.1
2023-05-19T04:12:13.230Z,3.1
2023-05-19T04:13:13.445Z,3
2023-05-19T04:14:13.527Z,2.5
2023-05-19T04:15:14.286Z,3.2
2023-05-19T04:16:15.195Z,2.9
2023-05-19T04:17:15.104Z,2.9
2023-05-19T04:18:15.442Z,2.8
2023-05-19T04:19:15.580Z,2.2
2023-05-19T04:20:15.932Z,3
2023-05-19T04:21:16.359Z,2.9
2023-05-19T04:22:16.775Z,2.1
2023-05-19T04:23:17.069Z,1.9
2023-05-19T04:24:17.411Z,2
2023-05-19T04:25:17.815Z,1.5
2023-05-19T04:26:18.336Z,1.6
2023-05-19T04:27:18.554Z,1.3
2023-05-19T04:28:19.057Z,1.4
2023-05-19T04:29:19.492Z,1.1
2023-05-19T04:30:19.793Z,1.4
2023-05-19T04:31:20.551Z,1.3
2023-05-19T04:32:20.739Z,1.3
2023-05-19T04:33:21.150Z,1.5
2023-05-19T04:34:21.181Z,1.1
2023-05-19T04:35:21.582Z,1
2023-05-19T04:36:22.009Z,1.3
2023-05-19T04:37:22.494Z,0.9
2023-05-19T04:38:22.638Z,1.5
2023-05-19T04:39:23.336Z,1.3
2023-05-19T04:40:23.434Z,1.1
2023-05-19T04:41:23.887Z,1.3
2023-05-19T04:42:24.297Z,1.1
2023-05-19T04:43:24.586Z,1.2
2023-05-19T04:44:25.000Z,1.2
2023-05-19T04:45:25.525Z,1
2023-05-19T04:46:27.114Z,1.4
2023-05-19T04:47:26.178Z,1.3
2023-05-19T04:48:26.569Z,1.3
2023-05-19T04:49:27.193Z,1.7
2023-05-19T04:50:27.299Z,1.2
2023-05-19T04:51:30.480Z,1.4
2023-05-19T04:52:28.233Z,1.1
2023-05-19T04:53:29.374Z,1.1
2023-05-19T04:54:28.976Z,1.2
2023-05-19T04:55:30.525Z,1.2
2023-05-19T04:56:29.710Z,1.3
2023-05-19T04:57:30.119Z,1.7
2023-05-19T04:58:30.522Z,2.6
2023-05-19T04:59:30.960Z,2
2023-05-19T05:00:31.659Z,2.1
2023-05-19T05:01:31.908Z,1.5
2023-05-19T05:02:34.866Z,1.6
2023-05-19T05:03:33.827Z,1.5
2023-05-19T05:04:32.738Z,1.4
2023-05-19T05:05:33.347Z,1.5
2023-05-19T05:06:33.774Z,1.2
2023-05-19T05:07:34.164Z,1
2023-05-19T05:08:34.586Z,1
2023-05-19T05:09:34.902Z,0.9
2023-05-19T05:10:35.377Z,1.4
2023-05-19T05:11:36.239Z,1.6
2023-05-19T05:12:36.560Z,1.4
2023-05-19T05:13:37.091Z,1.9
2023-05-19T05:14:37.183Z,2.4
2023-05-19T05:15:37.699Z,1.4
2023-05-19T05:16:39.093Z,1.2
2023-05-19T05:17:38.660Z,2.2
2023-05-19T05:18:38.955Z,1.9
2023-05-19T05:19:39.479Z,1.8
2023-05-19T05:20:40.302Z,1.5
2023-05-19T05:21:40.103Z,1.7
2023-05-19T05:22:40.516Z,1.3
2023-05-19T05:23:40.945Z,1.2
2023-05-19T05:24:41.249Z,1.4
2023-05-19T05:25:45.652Z,1.2
2023-05-19T05:26:43.730Z,1.1
2023-05-19T05:27:43.489Z,1.2
2023-05-19T05:28:43.824Z,0.9
2023-05-19T05:29:44.247Z,1.1
2023-05-19T05:30:44.675Z,0.8
2023-05-19T05:31:45.306Z,0.8
2023-05-19T05:32:46.137Z,1.2
2023-05-19T05:33:46.151Z,1
2023-05-19T05:34:46.525Z,1.4
2023-05-19T05:35:49.939Z,0.9
2023-05-19T05:36:47.536Z,1.3
2023-05-19T05:37:48.509Z,1
2023-05-19T05:38:48.299Z,0.9
2023-05-19T05:39:48.617Z,0.9
2023-05-19T05:40:49.027Z,1.3
2023-05-19T05:41:49.670Z,0.8
2023-05-19T05:42:49.971Z,1
2023-05-19T05:43:50.383Z,1
2023-05-19T05:44:55.121Z,0.9
2023-05-19T05:45:52.571Z,1
2023-05-19T05:46:53.676Z,0.9
2023-05-19T05:47:54.130Z,0.9
2023-05-19T05:48:54.640Z,1.2
2023-05-19T05:49:54.834Z,1
2023-05-19T05:50:57.396Z,1
2023-05-19T05:52:05.901Z,0.7
2023-05-19T05:53:02.725Z,0.7
2023-05-19T05:54:01.532Z,0.8
2023-05-19T05:55:01.011Z,1.2
2023-05-19T05:56:01.540Z,0.8
2023-05-19T05:57:02.139Z,1.1
2023-05-19T05:58:01.941Z,1
2023-05-19T05:59:02.365Z,1
2023-05-19T06:00:03.101Z,0.8
2023-05-19T06:01:04.128Z,1
2023-05-19T06:02:04.457Z,0.9
2023-05-19T06:03:04.116Z,0.9
2023-05-19T06:04:04.752Z,0.8
2023-05-19T06:05:05.339Z,0.8
2023-05-19T06:06:05.907Z,0.8
2023-05-19T06:07:05.692Z,0.9
2023-05-19T06:08:08.311Z,0.8
2023-05-19T06:09:06.312Z,0.9
2023-05-19T06:10:08.280Z,1
2023-05-19T06:11:07.477Z,0.9
2023-05-19T06:12:08.220Z,1
2023-05-19T06:13:08.811Z,0.9
2023-05-19T06:14:09.229Z,1
2023-05-19T06:15:10.572Z,1
2023-05-19T06:16:10.100Z,0.8
2023-05-19T06:17:10.890Z,0.9
2023-05-19T06:18:10.722Z,0.9
2023-05-19T06:19:11.186Z,1.1
2023-05-19T06:20:13.163Z,1.1
2023-05-19T06:21:12.037Z,1
2023-05-19T06:22:12.658Z,0.9
2023-05-19T06:23:13.172Z,0.9
2023-05-19T06:24:13.288Z,1.1
2023-05-19T06:25:13.610Z,0.9
2023-05-19T06:26:14.328Z,1.2
2023-05-19T06:27:14.765Z,0.8
2023-05-19T06:28:15.164Z,0.7
2023-05-19T06:29:15.769Z,0.9
2023-05-19T06:30:16.108Z,0.8
2023-05-19T06:31:16.327Z,0.7
2023-05-19T06:32:16.919Z,0.6
2023-05-19T06:33:17.122Z,0.8
2023-05-19T06:34:20.522Z,0.7
2023-05-19T06:35:18.473Z,1
2023-05-19T06:36:18.493Z,0.7
2023-05-19T06:37:19.004Z,0.7
2023-05-19T06:38:19.429Z,0.8
2023-05-19T06:39:19.847Z,0.7
2023-05-19T06:40:20.477Z,0.9
2023-05-19T06:41:20.683Z,0.7
2023-05-19T06:42:22.517Z,0.7
2023-05-19T06:43:21.290Z,0.9
2023-05-19T06:44:23.757Z,0.8
2023-05-19T06:45:22.376Z,0.7
2023-05-19T06:46:23.025Z,1.3
2023-05-19T06:47:23.222Z,0.9
2023-05-19T06:48:23.479Z,0.8
2023-05-19T06:49:27.069Z,1.2
2023-05-19T06:50:25.240Z,0.7
2023-05-19T06:51:25.054Z,1
2023-05-19T06:52:25.669Z,1
2023-05-19T06:53:26.078Z,0.8
2023-05-19T06:54:26.191Z,0.8
2023-05-19T06:55:26.902Z,0.7
2023-05-19T06:56:27.751Z,1.1
2023-05-19T06:57:28.256Z,0.9
2023-05-19T06:58:28.667Z,0.9
2023-05-19T06:59:28.978Z,0.9
2023-05-19T07:00:29.317Z,0.9
2023-05-19T07:01:29.956Z,1
2023-05-19T07:02:31.033Z,1
2023-05-19T07:03:30.830Z,1
2023-05-19T07:04:31.167Z,0.8
2023-05-19T07:05:31.889Z,1
2023-05-19T07:06:32.209Z,0.8
2023-05-19T07:07:32.625Z,0.7
2023-05-19T07:08:33.748Z,0.8
2023-05-19T07:09:33.252Z,0.8
2023-05-19T07:10:37.249Z,0.7
2023-05-19T07:11:35.020Z,0.8
2023-05-19T07:12:35.207Z,0.7
2023-05-19T07:13:35.759Z,0.9
2023-05-19T07:14:36.055Z,1
2023-05-19T07:15:36.474Z,0.9
2023-05-19T07:16:37.005Z,0.8
2023-05-19T07:17:37.988Z,0.8
2023-05-19T07:18:37.837Z,0.7
2023-05-19T07:19:38.125Z,0.7
2023-05-19T07:20:41.715Z,0.6
2023-05-19T07:21:39.162Z,0.7
2023-05-19T07:22:39.895Z,1.2
2023-05-19T07:23:40.078Z,0.7
2023-05-19T07:24:40.612Z,1.4
2023-05-19T07:25:41.540Z,0.8
2023-05-19T07:26:41.964Z,1.2
2023-05-19T07:27:42.063Z,0.9
2023-05-19T07:28:42.383Z,0.7
2023-05-19T07:29:42.607Z,0.9
2023-05-19T07:30:43.627Z,0.7
2023-05-19T07:31:43.671Z,0.6
2023-05-19T07:32:44.078Z,0.7
2023-05-19T07:33:44.792Z,0.6
2023-05-19T07:34:44.774Z,0.8
2023-05-19T07:35:45.516Z,0.8
2023-05-19T07:36:45.723Z,0.9
2023-05-19T07:37:46.448Z,0.8
2023-05-19T07:38:47.106Z,0.9
2023-05-19T07:39:46.964Z,1
2023-05-19T07:40:47.379Z,1.1
2023-05-19T07:41:47.998Z,0.9
2023-05-19T07:42:50.250Z,0.9
2023-05-19T07:43:49.947Z,0.6
2023-05-19T07:44:49.150Z,0.9
2023-05-19T07:45:52.183Z,0.9
2023-05-19T07:46:53.071Z,0.8
2023-05-19T07:47:50.943Z,0.8
2023-05-19T07:48:56.135Z,0.6
2023-05-19T07:50:06.605Z,1
2023-05-19T07:51:04.461Z,0.8
2023-05-19T07:52:15.618Z,0.6
2023-05-19T07:53:10.530Z,1
2023-05-19T07:54:13.760Z,0.7
2023-05-19T07:55:12.350Z,0.7
2023-05-19T07:56:12.155Z,1.2
2023-05-19T07:57:15.442Z,0.9
2023-05-19T07:58:13.095Z,0.7
2023-05-19T07:59:13.291Z,0.7
2023-05-19T08:00:14.761Z,0.8
2023-05-19T08:01:14.374Z,0.8
2023-05-19T08:02:14.816Z,0.8
2023-05-19T08:03:15.571Z,1.4
2023-05-19T08:04:15.557Z,1
2023-05-19T08:05:16.107Z,0.7
2023-05-19T08:06:16.435Z,0.6
2023-05-19T08:07:17.056Z,0.9
2023-05-19T08:08:17.343Z,0.9
2023-05-19T08:09:17.803Z,0.8
2023-05-19T08:10:18.498Z,1
2023-05-19T08:11:18.506Z,0.8
2023-05-19T08:12:19.234Z,0.8
2023-05-19T08:13:19.664Z,0.7
2023-05-19T08:14:19.851Z,0.8
2023-05-19T08:15:20.896Z,0.9
2023-05-19T08:16:20.877Z,0.7
2023-05-19T08:17:21.210Z,1.1
2023-05-19T08:18:25.422Z,1.3
2023-05-19T08:19:23.991Z,0.7
2023-05-19T08:20:26.375Z,1.3
2023-05-19T08:21:23.933Z,1.9
2023-05-19T08:22:24.325Z,1.1
2023-05-19T08:23:24.841Z,1.1
2023-05-19T08:24:25.168Z,0.8
2023-05-19T08:25:26.093Z,0.9
2023-05-19T08:26:26.196Z,1
2023-05-19T08:27:26.607Z,0.7
2023-05-19T08:28:27.216Z,0.8
2023-05-19T08:29:27.562Z,0.5
2023-05-19T08:30:28.062Z,0.9
2023-05-19T08:31:29.818Z,1
2023-05-19T08:32:28.710Z,1.1
2023-05-19T08:33:29.319Z,0.8
2023-05-19T08:34:29.611Z,0.8
2023-05-19T08:35:32.814Z,0.8
2023-05-19T08:36:30.680Z,0.8
2023-05-19T08:37:32.035Z,0.7
2023-05-19T08:38:31.797Z,0.8
2023-05-19T08:39:32.425Z,0.7
2023-05-19T08:40:35.496Z,0.8
2023-05-19T08:41:34.277Z,0.7
2023-05-19T08:42:34.199Z,1.1
2023-05-19T08:43:36.049Z,0.6
2023-05-19T08:44:35.644Z,1.2
2023-05-19T08:45:35.730Z,0.9
2023-05-19T08:46:36.413Z,0.9
2023-05-19T08:47:36.608Z,0.8
2023-05-19T08:48:42.314Z,0.6
2023-05-19T08:49:46.834Z,0.9
2023-05-19T08:50:51.961Z,0.7
2023-05-19T08:52:55.864Z,0.9
2023-05-19T08:57:16.766Z,0.7
2023-05-19T08:58:18.293Z,1
2023-05-19T08:59:19.953Z,1
2023-05-19T09:00:16.427Z,1
2023-05-19T09:01:23.271Z,0.9
2023-05-19T09:02:27.083Z,0.9
2023-05-19T09:05:31.472Z,0.7
2023-05-19T09:07:36.305Z,0.8
2023-05-19T09:08:33.838Z,0.9
2023-05-19T09:09:34.155Z,0.8
2023-05-19T09:10:34.684Z,0.9
2023-05-19T09:11:35.104Z,1
2023-05-19T09:12:36.019Z,0.7
2023-05-19T09:13:36.239Z,0.7
2023-05-19T09:14:37.561Z,1.7
2023-05-19T09:15:40.575Z,1.1
2023-05-19T09:16:39.045Z,0.9
2023-05-19T09:17:39.188Z,0.9
2023-05-19T09:18:39.919Z,0.8
2023-05-19T09:19:43.647Z,0.7
2023-05-19T09:20:44.882Z,0.8
2023-05-19T09:21:43.605Z,1.2
2023-05-19T09:22:49.274Z,0.9
2023-05-19T09:23:47.682Z,0.9
2023-05-19T09:24:47.917Z,0.7
2023-05-19T09:25:51.886Z,0.9
2023-05-19T09:26:49.831Z,0.7
2023-05-19T09:27:50.160Z,0.7
2023-05-19T09:28:50.459Z,0.7
2023-05-19T09:29:50.767Z,0.9
2023-05-19T09:31:56.133Z,0.7
2023-05-19T09:32:55.639Z,0.7
2023-05-19T09:33:55.826Z,0.9
2023-05-19T09:34:56.241Z,0.8
2023-05-19T09:35:57.467Z,0.9
2023-05-19T09:36:57.275Z,0.7
2023-05-19T09:37:57.795Z,0.7
2023-05-19T09:38:57.898Z,0.6
2023-05-19T09:39:59.965Z,0.7
2023-05-19T09:41:00.894Z,0.8
2023-05-19T09:41:59.359Z,0.8
2023-05-19T09:42:59.762Z,0.9
2023-05-19T09:44:00.331Z,0.8
2023-05-19T09:45:03.073Z,1.2
2023-05-19T09:46:07.216Z,0.9
2023-05-19T09:47:05.034Z,0.6
2023-05-19T09:48:05.895Z,0.8
2023-05-19T09:49:09.292Z,0.6
2023-05-19T09:50:11.195Z,1.2
2023-05-19T09:51:09.047Z,0.7
2023-05-19T09:52:10.503Z,1.4
2023-05-19T09:53:12.132Z,0.6
2023-05-19T09:54:15.109Z,0.9
2023-05-19T09:55:13.543Z,0.8
2023-05-19T09:56:15.033Z,0.7
2023-05-19T09:57:16.450Z,0.6
2023-05-19T09:58:18.561Z,1
2023-05-19T09:59:19.333Z,0.7
2023-05-19T10:00:19.128Z,0.7
2023-05-19T10:01:18.070Z,0.8
2023-05-19T10:02:19.565Z,1
2023-05-19T10:03:18.640Z,0.8
2023-05-19T10:04:19.379Z,0.8
2023-05-19T10:05:20.815Z,0.6
2023-05-19T10:06:23.280Z,0.6
2023-05-19T10:07:22.968Z,0.9
2023-05-19T10:08:22.375Z,0.8
2023-05-19T10:09:26.262Z,1.8
2023-05-19T10:10:23.810Z,3.1
2023-05-19T10:11:25.556Z,1.4
2023-05-19T10:12:30.385Z,1
2023-05-19T10:13:29.896Z,0.8
2023-05-19T10:14:29.827Z,0.8
2023-05-19T10:15:29.063Z,0.8
2023-05-19T10:16:31.798Z,1.1
2023-05-19T10:17:29.814Z,1
2023-05-19T10:18:33.592Z,0.7
2023-05-19T10:19:32.909Z,0.8
2023-05-19T10:20:32.907Z,1
2023-05-19T10:21:32.286Z,0.7
2023-05-19T10:22:33.734Z,0.9
2023-05-19T10:23:32.924Z,0.8
2023-05-19T10:24:36.606Z,0.7
2023-05-19T10:25:35.449Z,0.8
2023-05-19T10:26:36.110Z,0.8
2023-05-19T10:27:37.547Z,0.7
2023-05-19T10:28:41.098Z,0.9
2023-05-19T10:29:41.225Z,0.8
2023-05-19T10:30:45.765Z,1
2023-05-19T10:31:45.278Z,0.9
2023-05-19T10:32:46.873Z,0.9
2023-05-19T10:40:06.180Z,0.8
2023-05-19T10:46:17.545Z,0.8
2023-05-19T10:48:21.705Z,1
2023-05-19T10:49:22.044Z,0.9
2023-05-19T10:50:21.727Z,1.2
2023-05-19T10:52:26.112Z,0.9
2023-05-19T10:55:46.548Z,0.8
2023-05-19T10:56:39.489Z,0.9
2023-05-19T10:57:37.055Z,0.9
2023-05-19T10:59:39.192Z,0.7
2023-05-19T11:00:40.129Z,0.7
2023-05-19T11:01:40.186Z,1.1
2023-05-19T11:02:43.528Z,0.9
2023-05-19T11:05:49.406Z,0.9
2023-05-19T11:06:52.548Z,0.7
2023-05-19T11:09:56.573Z,0.9
2023-05-19T11:10:57.704Z,0.9
2023-05-19T11:13:00.607Z,1
2023-05-19T11:14:00.792Z,0.8
2023-05-19T11:18:05.670Z,0.9
2023-05-19T11:19:06.903Z,0.9
2023-05-19T11:20:09.223Z,1
2023-05-19T11:21:06.839Z,1.3
2023-05-19T11:22:13.778Z,1.1
2023-05-19T11:23:16.254Z,1
2023-05-19T11:26:16.131Z,1
2023-05-19T11:28:21.994Z,0.9
2023-05-19T11:29:21.374Z,1.1
2023-05-19T11:30:20.552Z,1
2023-05-19T11:31:22.735Z,0.9
2023-05-19T11:32:21.928Z,1
2023-05-19T11:33:21.823Z,0.8
2023-05-19T11:34:23.273Z,1
2023-05-19T11:35:24.686Z,0.9
2023-05-19T11:36:23.230Z,0.8
2023-05-19T11:37:23.496Z,1
2023-05-19T11:38:23.896Z,1.1
2023-05-19T11:39:25.728Z,1.1
2023-05-19T11:40:26.472Z,1
2023-05-19T11:41:25.234Z,1
2023-05-19T11:42:27.192Z,1.1
2023-05-19T11:43:26.568Z,1
2023-05-19T11:44:26.805Z,1.1
2023-05-19T11:45:28.469Z,1.1
2023-05-19T11:46:28.285Z,1.3
2023-05-19T11:47:28.261Z,1
2023-05-19T11:48:30.212Z,1
2023-05-19T11:49:29.404Z,0.9
2023-05-19T11:50:30.738Z,0.9
2023-05-19T11:51:29.624Z,1.1
2023-05-19T11:52:30.257Z,0.8
2023-05-19T11:53:31.199Z,1
2023-05-19T11:54:33.213Z,1
2023-05-19T11:55:31.892Z,1
2023-05-19T11:56:34.969Z,0.9
2023-05-19T11:57:33.750Z,1.2
2023-05-19T11:58:32.928Z,0.9
2023-05-19T11:59:35.989Z,0.9
2023-05-19T12:00:40.378Z,1.1
2023-05-19T12:01:38.269Z,1.6
2023-05-19T12:02:38.765Z,1.2
2023-05-19T12:03:39.206Z,1.5
2023-05-19T12:04:39.515Z,1.1
2023-05-19T12:05:49.393Z,0.9
2023-05-19T12:06:42.661Z,1
2023-05-19T12:07:42.710Z,1
2023-05-19T12:08:43.742Z,0.9
2023-05-19T12:09:47.455Z,0.8
2023-05-19T12:10:48.479Z,1
2023-05-19T12:11:46.126Z,1
2023-05-19T12:12:46.656Z,1.3
2023-05-19T12:13:48.000Z,1
2023-05-19T12:14:53.921Z,1
2023-05-19T12:16:01.761Z,1.1
2023-05-19T12:16:58.960Z,1.1
2023-05-19T12:20:16.516Z,0.8
2023-05-19T12:21:06.799Z,1.2
2023-05-19T12:22:07.690Z,0.9
2023-05-19T12:23:08.159Z,1
2023-05-19T12:24:07.698Z,0.9
2023-05-19T12:25:08.864Z,1
2023-05-19T12:26:08.807Z,1.2
2023-05-19T12:28:10.316Z,1
2023-05-19T12:29:13.063Z,0.9
2023-05-19T12:30:12.773Z,1
2023-05-19T12:31:12.809Z,1.3
2023-05-19T12:32:11.690Z,1
2023-05-19T12:33:15.497Z,1
2023-05-19T12:34:13.676Z,1
2023-05-19T12:35:14.849Z,1.1
2023-05-19T12:36:13.845Z,1.1
2023-05-19T12:37:14.273Z,1
2023-05-19T12:38:14.985Z,0.9
2023-05-19T12:39:15.188Z,1
2023-05-19T12:41:17.868Z,1.1
2023-05-19T12:42:18.191Z,1.3
2023-05-19T12:44:22.506Z,1
2023-05-19T12:45:23.416Z,1.2
2023-05-19T12:46:23.491Z,1.1
2023-05-19T12:48:28.582Z,1.4
2023-05-19T12:49:27.442Z,0.8
2023-05-19T12:50:31.138Z,1.1
2023-05-19T12:51:28.928Z,1.3
2023-05-19T12:52:30.114Z,1.3
2023-05-19T12:53:30.026Z,1.3
2023-05-19T12:56:37.599Z,1.1
2023-05-19T12:57:39.116Z,0.9
2023-05-19T12:58:38.498Z,1.2
2023-05-19T12:59:43.060Z,0.9
2023-05-19T13:01:43.856Z,0.9
2023-05-19T13:03:45.511Z,1.3
2023-05-19T13:04:45.753Z,1.4
2023-05-19T13:05:49.180Z,1.2
2023-05-19T13:06:46.906Z,1.2
2023-05-19T13:08:50.190Z,1.1
2023-05-19T13:09:48.960Z,1
2023-05-19T13:10:48.651Z,1
2023-05-19T13:11:50.639Z,1.4
2023-05-19T13:12:49.520Z,1
2023-05-19T13:13:49.854Z,1
2023-05-19T13:14:50.251Z,0.9
2023-05-19T13:15:50.349Z,1
2023-05-19T13:16:51.101Z,0.7
2023-05-19T13:17:51.725Z,1.1
2023-05-19T13:18:51.751Z,1
2023-05-19T13:19:52.650Z,1.2
2023-05-19T13:20:56.430Z,0.9
2023-05-19T13:21:53.964Z,1.1
2023-05-19T13:22:54.251Z,1.1
2023-05-19T13:23:55.112Z,1.1
2023-05-19T13:24:55.119Z,1
2023-05-19T13:25:55.631Z,0.9
2023-05-19T13:26:56.215Z,1
2023-05-19T13:27:56.877Z,1
2023-05-19T13:28:56.800Z,1.4
2023-05-19T13:29:57.608Z,0.9
2023-05-19T13:30:57.417Z,1
2023-05-19T13:31:59.770Z,0.9
2023-05-19T13:32:58.896Z,1.3
2023-05-19T13:33:59.186Z,1
2023-05-19T13:35:00.935Z,1
2023-05-19T13:36:00.310Z,1
2023-05-19T13:37:00.869Z,1
2023-05-19T13:38:00.858Z,1.1
2023-05-19T13:39:01.449Z,1.1
2023-05-19T13:40:02.600Z,1.2
2023-05-19T13:41:02.709Z,0.9
2023-05-19T13:42:02.711Z,1
2023-05-19T13:43:04.067Z,1
2023-05-19T13:44:03.247Z,1.1
2023-05-19T13:45:04.247Z,1.1
2023-05-19T13:46:04.583Z,1.1
2023-05-19T13:47:04.834Z,1.3
2023-05-19T13:48:05.433Z,1.5
2023-05-19T13:49:05.018Z,1.4
2023-05-19T13:50:06.452Z,1.2
2023-05-19T13:51:05.847Z,3.9
2023-05-19T13:52:06.559Z,1
2023-05-19T13:53:06.688Z,1.1
2023-05-19T13:54:07.095Z,0.9
2023-05-19T13:55:07.915Z,1.2
2023-05-19T13:56:08.042Z,1.1
2023-05-19T13:57:08.646Z,1.1
2023-05-19T13:58:11.249Z,1.1
2023-05-19T13:59:08.966Z,1.1
2023-05-19T14:00:10.527Z,1.1
2023-05-19T14:01:09.696Z,1.1
2023-05-19T14:02:12.980Z,1.1
2023-05-19T14:03:10.474Z,0.9
2023-05-19T14:04:11.169Z,0.9
2023-05-19T14:05:11.068Z,0.9
2023-05-19T14:06:11.594Z,1.1
2023-05-19T14:07:11.981Z,1.2
2023-05-19T14:08:13.526Z,0.9
2023-05-19T14:09:14.250Z,1.3
2023-05-19T14:10:14.672Z,0.9
2023-05-19T14:11:19.922Z,0.9
2023-05-19T14:12:18.147Z,0.9
2023-05-19T14:13:32.627Z,0.9
2023-05-19T14:14:21.758Z,1.4
2023-05-19T14:15:22.385Z,1
2023-05-19T14:16:23.249Z,1.2
2023-05-19T14:17:22.929Z,1.1
2023-05-19T14:18:23.491Z,1.1
2023-05-19T14:19:23.647Z,0.9
2023-05-19T14:20:24.273Z,1
2023-05-19T14:21:25.203Z,0.9
2023-05-19T14:22:24.791Z,0.9
2023-05-19T14:23:25.408Z,1
2023-05-19T14:24:25.612Z,1.2
2023-05-19T14:25:25.825Z,1.1
2023-05-19T14:26:27.354Z,1.4
2023-05-19T14:27:29.332Z,1
2023-05-19T14:28:27.084Z,1.3
2023-05-19T14:29:27.902Z,1.2
2023-05-19T14:30:30.572Z,1.1
2023-05-19T14:31:28.158Z,0.9
2023-05-19T14:32:31.537Z,0.9
2023-05-19T14:33:32.716Z,1
2023-05-19T14:34:32.624Z,1.1
2023-05-19T14:35:33.075Z,1
2023-05-19T14:36:33.290Z,1.1
2023-05-19T14:37:33.639Z,1
2023-05-19T14:38:34.101Z,1.1
2023-05-19T14:39:34.529Z,1.1
2023-05-19T14:40:37.391Z,1.1
2023-05-19T14:41:35.167Z,1
2023-05-19T14:42:35.598Z,1.1
2023-05-19T14:43:35.877Z,1
2023-05-19T14:44:36.308Z,1.2
2023-05-19T14:45:38.164Z,1.3
2023-05-19T14:46:36.979Z,1
2023-05-19T14:47:37.390Z,0.9
2023-05-19T14:48:38.062Z,1.4
2023-05-19T14:49:38.820Z,1.4
2023-05-19T14:50:39.012Z,1.2
2023-05-19T14:51:38.913Z,1.3
2023-05-19T14:52:39.214Z,1.4
2023-05-19T14:53:39.651Z,1.4
2023-05-19T14:54:40.056Z,1
2023-05-19T14:55:40.602Z,0.9
2023-05-19T14:56:40.889Z,1
2023-05-19T14:57:41.317Z,1.2
2023-05-19T14:58:41.630Z,1.1
2023-05-19T14:59:42.023Z,1.1
2023-05-19T15:00:43.252Z,1.1
2023-05-19T15:01:42.730Z,1.1
2023-05-19T15:02:43.125Z,0.9
2023-05-19T15:03:43.441Z,1
2023-05-19T15:04:43.798Z,1.1
2023-05-19T15:05:46.706Z,1.1
2023-05-19T15:06:46.417Z,0.8
2023-05-19T15:07:45.897Z,1
2023-05-19T15:08:46.214Z,1.6
2023-05-19T15:09:46.607Z,0.9
2023-05-19T15:10:50.290Z,0.8
2023-05-19T15:11:47.610Z,0.9
2023-05-19T15:12:48.365Z,0.9
2023-05-19T15:13:54.307Z,0.8
2023-05-19T15:14:51.763Z,0.9
2023-05-19T15:15:58.935Z,0.8
2023-05-19T15:16:52.621Z,0.9
2023-05-19T15:17:52.632Z,1
2023-05-19T15:18:55.883Z,1.1
2023-05-19T15:19:53.430Z,1.7
2023-05-19T15:20:53.840Z,1.2
2023-05-19T15:21:54.472Z,1.5
2023-05-19T15:22:54.698Z,1
2023-05-19T15:23:54.895Z,1.1
2023-05-19T15:24:55.409Z,1.1
2023-05-19T15:25:55.924Z,2.3
2023-05-19T15:26:56.170Z,1.1